Albuquerque International Sunport Airport
KABQ : now visible

Aeroporto :











RITROVATECI SU...

 
LOGIN :

Iscrizione | Disclaimer

   EN    FR    IT 

 









Sommario :    VFR   VFR Marginale   IFR   IFR Intensivo   IFR Molto Intensivo
Visibilità : 
Base nubi : 
>= 8 km
>= 3000ft
5 / 8 km
1000 / 3000 ft
1500m / 5 km
500 / 1000 ft
800 / 1500m
200 / 500 ft
< 800m
< 200 ft
Simboli :   Temporali  Nebbia  Neve Forte  Precipitazioni Forti  Vento > 20 kt






- Altitudine del aeroporto : 5355 ft
- Codice IATA : ABQ


KABQ - Albuquerque International Sunport

ULTIMO METAR :
  • 250452Z 36010KT 10SM CLR 04/M14 A3005 RMK AO2 SLP164 T00441139

METARs OBSOLETI :
  • 250352Z 34013KT 10SM CLR 05/M13 A3004 RMK AO2 SLP161 T00501133
  • 250252Z 35012KT 10SM FEW090 06/M11 A3003 RMK AO2 SLP157 T00611111 53018

TAF KABQ
Valido dal 25 a 00 ore il 26 a 00 ore UTC


242347Z 2500/2524 32025G35KT P6SM FEW060
FM250200 33015G25KT P6SM SKC
FM250500 34011KT P6SM SKC
FM251700 34018G30KT P6SM SCT100



MetMap, La meteo Aeronautica in un colpo d'occhio ! - Copyright ORBIFLY Dicembre 2007 - Disclaimer

ORBIFLY MET'MAP TEAM :

Programmazione e sviluppo : Alexandra Zaïnal
Concezione : Baudouin d'Aumeries
Aiuto per la programmazione : Marc-Olivier Méhu
Supporto tecnico e logistico : Manuel Goepfert
Aiuto per la traduzione : Arnaldo La Scala

Contatto : metmap@orbifly.com




FONTI E CREDITI :

   NOAA       Earth
Advisory